Time;durP1;ratioP1;P1;durP2;ratioP2;P2;SDS_P1;SDS_P2;PMS_P1;PMS_P2;Temp;Humidity;BMP_temperature;BMP_pressure;BME280_temperature;BME280_humidity;BME280_pressure;Samples;Min_cycle;Max_cycle;Signal;HPM_P1;HPM_P2
2022/06/30 00:01:57;;;;;;;10.58;9.88;;;;;;;19.16;100.00;100351.51;1625940;86;21171;-76
2022/06/30 00:04:23;;;;;;;;;;;;;;;19.15;100.00;100350.40;1628329;86;21093;-74
2022/06/30 00:06:52;;;;;;;10.35;9.58;;;;;;;19.14;100.00;100337.97;1615135;87;20489;-76
2022/06/30 00:09:19;;;;;;;10.08;9.33;;;;;;;19.09;100.00;100333.83;1618830;86;21066;-76
2022/06/30 00:11:45;;;;;;;9.93;9.23;;;;;;;19.08;100.00;100338.92;1610228;85;21085;-78
2022/06/30 00:14:12;;;;;;;11.03;10.13;;;;;;;19.08;100.00;100342.47;1599530;88;21130;-76
2022/06/30 00:16:38;;;;;;;10.23;9.53;;;;;;;19.07;100.00;100346.22;1597039;87;21079;-76
2022/06/30 00:19:04;;;;;;;;;;;;;;;19.07;100.00;100357.02;1612107;87;21146;-74
2022/06/30 00:21:30;;;;;;;11.00;10.23;;;;;;;19.05;100.00;100352.41;1610107;87;20137;-75
2022/06/30 00:23:56;;;;;;;;;;;;;;;18.98;100.00;100352.55;1619977;86;21103;-77
2022/06/30 00:26:22;;;;;;;10.50;9.33;;;;;;;18.95;100.00;100358.96;1608470;87;20164;-77
2022/06/30 00:28:48;;;;;;;;;;;;;;;18.91;100.00;100353.77;1619510;87;21040;-76
2022/06/30 00:31:14;;;;;;;8.50;7.67;;;;;;;18.90;100.00;100360.24;1605073;87;20387;-75
2022/06/30 00:33:41;;;;;;;9.40;8.55;;;;;;;18.86;100.00;100363.95;1604940;87;21063;-75
2022/06/30 00:36:07;;;;;;;9.93;9.03;;;;;;;18.84;100.00;100368.25;1600980;87;21539;-76
2022/06/30 00:38:33;;;;;;;10.45;9.58;;;;;;;18.81;100.00;100372.77;1592004;87;21722;-76
2022/06/30 00:41:00;;;;;;;9.28;8.43;;;;;;;18.77;100.00;100382.92;1605379;87;21087;-77
2022/06/30 00:43:26;;;;;;;10.48;9.58;;;;;;;18.72;100.00;100380.94;1600914;87;21142;-75
2022/06/30 00:45:52;;;;;;;9.25;8.55;;;;;;;18.66;100.00;100390.81;1643540;85;21032;-76
2022/06/30 00:48:19;;;;;;;9.83;7.87;;;;;;;18.60;100.00;100394.48;1648098;85;21047;-77
2022/06/30 00:50:45;;;;;;;8.58;7.47;;;;;;;18.53;100.00;100403.25;1657185;85;21083;-78
2022/06/30 00:53:12;;;;;;;8.85;8.25;;;;;;;18.46;100.00;100399.89;1655776;85;20996;-77
2022/06/30 00:55:39;;;;;;;9.55;8.85;;;;;;;18.43;100.00;100398.47;1655554;85;22334;-76
2022/06/30 00:58:08;;;;;;;10.45;9.38;;;;;;;18.41;100.00;100400.59;1661049;85;21075;-76
2022/06/30 01:00:38;;;;;;;9.88;9.15;;;;;;;18.40;100.00;100394.92;1653910;85;21565;-76
2022/06/30 01:03:09;;;;;;;9.23;8.53;;;;;;;18.41;100.00;100393.84;1661407;85;21101;-74
2022/06/30 01:05:37;;;;;;;7.93;7.37;;;;;;;18.42;100.00;100396.84;1661608;85;21094;-75
2022/06/30 01:08:05;;;;;;;8.20;7.47;;;;;;;18.41;100.00;100390.33;1668265;85;21050;-75
2022/06/30 01:13:18;;;;;;;8.93;8.28;;;;;;;18.39;100.00;100380.31;1645274;85;21120;-75
2022/06/30 01:15:44;;;;;;;;;;;;;;;18.39;100.00;100385.16;1652807;85;21069;-72
2022/06/30 01:18:11;;;;;;;7.83;7.00;;;;;;;18.40;100.00;100382.77;1666101;85;20239;-75
2022/06/30 01:20:38;;;;;;;8.43;7.70;;;;;;;18.34;100.00;100369.41;1668295;83;21089;-76
2022/06/30 01:23:05;;;;;;;8.28;7.75;;;;;;;18.33;100.00;100369.94;1663636;83;21141;-72
2022/06/30 01:25:34;;;;;;;7.95;7.28;;;;;;;18.33;100.00;100369.94;1675193;83;21061;-70
2022/06/30 01:28:02;;;;;;;8.03;7.28;;;;;;;18.33;100.00;100365.89;1678689;83;21066;-76
2022/06/30 01:30:48;;;;;;;9.10;7.97;;;;;;;18.31;100.00;100371.22;1706916;83;21510;-76
2022/06/30 01:33:14;;;;;;;7.87;7.35;;;;;;;18.28;100.00;100373.88;1651156;84;21034;-73
2022/06/30 01:35:41;;;;;;;8.28;7.47;;;;;;;18.29;100.00;100380.92;1660991;85;21209;-75
2022/06/30 01:38:08;;;;;;;9.80;7.42;;;;;;;18.26;100.00;100374.64;1695666;83;21789;-75
2022/06/30 01:40:36;;;;;;;6.97;6.37;;;;;;;18.26;100.00;100374.64;1694195;83;21125;-73
2022/06/30 01:43:06;;;;;;;12.30;7.25;;;;;;;18.25;100.00;100374.34;1685916;83;21046;-75
2022/06/30 01:45:33;;;;;;;8.53;7.75;;;;;;;18.24;100.00;100371.37;1681997;83;21065;-76
2022/06/30 01:48:00;;;;;;;8.80;8.20;;;;;;;18.23;100.00;100369.20;1686294;83;21014;-77
2022/06/30 01:50:29;;;;;;;7.65;7.05;;;;;;;18.23;100.00;100365.66;1642787;85;21114;-75
2022/06/30 01:52:57;;;;;;;8.23;7.50;;;;;;;18.25;100.00;100364.89;1691400;83;21054;-78
2022/06/30 01:55:24;;;;;;;9.48;6.60;;;;;;;18.26;100.00;100361.97;1648338;85;21182;-74
2022/06/30 01:57:51;;;;;;;7.37;6.67;;;;;;;18.28;100.00;100369.29;1634047;86;21460;-73
2022/06/30 02:00:21;;;;;;;6.70;6.30;;;;;;;18.29;100.00;100368.78;1616950;86;21054;-73
2022/06/30 02:02:50;;;;;;;8.55;7.92;;;;;;;18.30;100.00;100363.66;1603358;87;22003;-75
2022/06/30 02:05:18;;;;;;;7.45;6.95;;;;;;;18.31;100.00;100361.77;1601117;87;21167;-75
2022/06/30 02:07:44;;;;;;;6.85;6.37;;;;;;;18.30;100.00;100365.01;1629164;87;21117;-75
2022/06/30 02:10:15;;;;;;;7.37;6.53;;;;;;;18.30;100.00;100366.36;1607547;87;21065;-75
2022/06/30 02:12:45;;;;;;;6.53;6.00;;;;;;;18.32;100.00;100364.23;1608492;87;21160;-74
2022/06/30 02:15:32;;;;;;;6.75;6.08;;;;;;;18.34;100.00;100368.05;1613195;87;21031;-77
2022/06/30 02:17:55;;;;;;;8.20;7.05;;;;;;;18.36;100.00;100365.39;1610901;87;21128;-78
2022/06/30 02:20:23;;;;;;;;;;;;;;;18.36;100.00;100364.59;1624872;87;21085;-73
2022/06/30 02:22:57;;;;;;;7.15;6.58;;;;;;;18.38;100.00;100367.86;1603630;86;20114;-77
2022/06/30 02:25:27;;;;;;;7.90;7.35;;;;;;;18.34;100.00;100364.81;1621777;86;21990;-70
2022/06/30 02:27:54;;;;;;;7.55;7.05;;;;;;;18.21;100.00;100339.46;1606606;87;21116;-77
2022/06/30 02:30:21;;;;;;;8.20;7.08;;;;;;;18.40;100.00;100363.04;1608003;87;21106;-75
2022/06/30 02:32:49;;;;;;;7.95;7.35;;;;;;;18.43;100.00;100359.88;1607830;87;21564;-77
2022/06/30 02:35:16;;;;;;;7.37;6.75;;;;;;;18.52;100.00;100369.23;1608815;87;21049;-76
2022/06/30 02:37:42;;;;;;;6.05;5.62;;;;;;;18.73;100.00;100375.84;1607706;87;20998;-74
2022/06/30 02:40:09;;;;;;;7.03;6.35;;;;;;;19.02;100.00;100369.92;1604108;87;21205;-77
2022/06/30 02:42:37;;;;;;;6.55;5.95;;;;;;;19.34;100.00;100372.59;1611165;87;21029;-77
2022/06/30 02:45:05;;;;;;;6.42;5.95;;;;;;;19.64;100.00;100363.59;1613105;87;21047;-75
2022/06/30 02:47:39;;;;;;;5.95;5.47;;;;;;;19.94;98.78;100378.66;1624770;87;21108;-77
2022/06/30 02:50:09;;;;;;;5.97;5.20;;;;;;;20.23;95.54;100371.75;1608843;87;21089;-77
2022/06/30 02:52:36;;;;;;;5.12;4.72;;;;;;;20.49;94.36;100372.05;1610814;87;21019;-77
2022/06/30 02:55:05;;;;;;;5.58;5.28;;;;;;;20.79;92.74;100368.87;1622077;87;21031;-73
2022/06/30 02:57:34;;;;;;;5.97;5.45;;;;;;;21.11;91.72;100371.61;1624708;86;21048;-77
2022/06/30 03:00:00;;;;;;;6.62;4.90;;;;;;;21.45;89.28;100374.09;1624652;87;20986;-78
2022/06/30 03:02:26;;;;;;;8.55;5.15;;;;;;;21.74;86.27;100373.22;1662335;85;21107;-77
2022/06/30 03:04:52;;;;;;;5.12;4.67;;;;;;;22.00;83.62;100377.97;1651584;85;21056;-75
2022/06/30 03:07:19;;;;;;;6.47;5.08;;;;;;;22.23;82.21;100385.69;1654602;85;21147;-77
2022/06/30 03:09:45;;;;;;;4.50;4.20;;;;;;;22.46;80.00;100385.81;1652057;85;21561;-79
2022/06/30 03:12:13;;;;;;;5.95;4.45;;;;;;;22.66;79.78;100376.92;1633372;86;21060;-74
2022/06/30 03:14:40;;;;;;;4.78;4.33;;;;;;;22.96;80.00;100378.03;1613033;86;21073;-77
2022/06/30 03:17:06;;;;;;;4.53;3.62;;;;;;;23.31;76.74;100371.03;1620424;87;21048;-76
2022/06/30 03:19:33;;;;;;;4.40;3.83;;;;;;;23.59;74.23;100364.76;1614658;87;21151;-75
2022/06/30 03:21:59;;;;;;;4.97;3.35;;;;;;;23.83;74.17;100369.09;1617809;87;21089;-75
2022/06/30 03:24:25;;;;;;;3.58;3.33;;;;;;;24.06;69.64;100369.02;1626206;87;21064;-76
2022/06/30 03:26:51;;;;;;;3.90;3.60;;;;;;;24.17;69.28;100367.09;1614624;86;21523;-75
2022/06/30 03:29:17;;;;;;;4.25;3.77;;;;;;;24.31;70.30;100366.73;1621658;87;21133;-78
2022/06/30 03:31:44;;;;;;;2.80;2.60;;;;;;;24.55;68.58;100365.56;1619824;87;21099;-78
2022/06/30 03:34:10;;;;;;;3.12;2.92;;;;;;;24.76;67.49;100366.80;1614971;87;21445;-78
2022/06/30 03:36:38;;;;;;;3.20;3.00;;;;;;;24.93;67.61;100368.59;1616754;87;21110;-77
2022/06/30 03:39:05;;;;;;;2.58;2.42;;;;;;;25.19;66.10;100372.50;1621868;87;21567;-76
2022/06/30 03:41:31;;;;;;;5.53;3.62;;;;;;;25.40;64.55;100369.88;1624700;87;21547;-74
2022/06/30 03:43:57;;;;;;;2.90;2.80;;;;;;;25.60;63.66;100367.52;1617589;87;22238;-77
2022/06/30 03:46:24;;;;;;;2.80;2.27;;;;;;;25.77;62.41;100377.19;1622593;87;21067;-76
2022/06/30 03:48:51;;;;;;;4.78;2.67;;;;;;;25.91;62.87;100380.84;1618765;87;21041;-76
2022/06/30 03:51:17;;;;;;;2.95;2.75;;;;;;;26.14;61.09;100377.86;1622457;87;21454;-77
2022/06/30 03:53:44;;;;;;;2.83;2.60;;;;;;;26.41;60.40;100384.66;1618066;86;21061;-72
2022/06/30 03:56:10;;;;;;;2.95;2.65;;;;;;;26.57;59.20;100376.49;1622689;87;21076;-70
2022/06/30 03:58:36;;;;;;;3.70;3.17;;;;;;;26.74;59.26;100380.67;1613529;86;22504;-75
2022/06/30 04:01:03;;;;;;;3.08;2.80;;;;;;;26.91;58.30;100374.69;1619621;87;21173;-73
2022/06/30 04:03:29;;;;;;;3.12;3.02;;;;;;;27.07;57.11;100384.28;1614133;87;21167;-71
2022/06/30 04:05:56;;;;;;;3.40;3.20;;;;;;;27.15;57.28;100386.33;1624183;87;21615;-79
2022/06/30 04:08:23;;;;;;;3.55;3.25;;;;;;;27.24;55.89;100385.11;1617095;87;21059;-79
2022/06/30 04:10:49;;;;;;;3.45;3.12;;;;;;;27.31;56.12;100385.56;1623110;87;21061;-76
2022/06/30 04:13:15;;;;;;;2.40;2.30;;;;;;;27.50;55.86;100390.16;1644451;86;21075;-76
2022/06/30 04:15:41;;;;;;;2.95;2.75;;;;;;;27.70;54.45;100379.41;1637585;85;21228;-77
2022/06/30 04:18:08;;;;;;;3.55;2.80;;;;;;;27.85;54.21;100386.52;1602856;87;21084;-73
2022/06/30 04:20:35;;;;;;;3.52;3.27;;;;;;;28.01;54.11;100386.52;1606994;87;22396;-79
2022/06/30 04:23:03;;;;;;;3.20;3.00;;;;;;;28.20;53.08;100392.42;1613698;86;21005;-74
2022/06/30 04:25:29;;;;;;;3.12;2.92;;;;;;;28.28;52.67;100382.14;1609219;87;21055;-74
2022/06/30 04:27:58;;;;;;;2.10;1.98;;;;;;;28.30;52.10;100390.86;1606221;87;21032;-72
2022/06/30 04:33:09;;;;;;;3.37;3.17;;;;;;;28.45;52.30;100383.68;1598477;87;21057;-75
2022/06/30 04:35:36;;;;;;;2.75;2.65;;;;;;;28.48;51.19;100388.56;1610050;87;21045;-78
2022/06/30 04:38:04;;;;;;;2.80;2.60;;;;;;;28.51;51.29;100383.81;1602184;87;21138;-74
2022/06/30 04:43:16;;;;;;;3.92;3.45;;;;;;;28.50;51.31;100388.23;1604580;87;21145;-73
2022/06/30 04:45:47;;;;;;;3.58;3.27;;;;;;;28.51;50.78;100387.13;1650491;85;21091;-79
2022/06/30 04:48:13;;;;;;;2.67;2.47;;;;;;;28.38;51.21;100384.65;1652057;85;21083;-74
2022/06/30 04:50:40;;;;;;;5.03;2.90;;;;;;;28.26;51.68;100385.18;1645692;85;21551;-72
2022/06/30 04:53:08;;;;;;;3.65;3.45;;;;;;;28.26;51.97;100377.52;1648481;85;21159;-75
2022/06/30 04:55:34;;;;;;;3.65;3.45;;;;;;;28.03;51.74;100386.19;1643607;85;21071;-73
2022/06/30 04:58:00;;;;;;;3.65;3.42;;;;;;;27.67;53.25;100386.84;1645679;85;22145;-74
2022/06/30 05:00:27;;;;;;;3.75;3.55;;;;;;;27.54;53.59;100389.84;1647746;85;21109;-72
2022/06/30 05:02:54;;;;;;;3.70;3.47;;;;;;;27.51;54.18;100383.58;1611386;87;21613;-70
2022/06/30 05:05:20;;;;;;;4.45;3.98;;;;;;;27.60;54.15;100387.25;1607836;87;21104;-70
2022/06/30 05:07:47;;;;;;;3.17;2.95;;;;;;;27.64;53.66;100382.80;1640074;86;21126;-73
2022/06/30 05:10:13;;;;;;;3.58;3.27;;;;;;;27.60;54.74;100392.73;1640802;86;21127;-72
2022/06/30 05:12:39;;;;;;;3.35;2.70;;;;;;;27.72;54.81;100399.88;1605825;87;21013;-71
2022/06/30 05:15:07;;;;;;;3.05;2.80;;;;;;;27.77;54.59;100403.91;1599223;87;21032;-71
2022/06/30 05:17:35;;;;;;;3.17;3.08;;;;;;;27.93;53.94;100398.16;1634394;86;21544;-73
2022/06/30 05:20:02;;;;;;;3.37;3.17;;;;;;;27.91;53.33;100413.53;1607959;87;21036;-71
2022/06/30 05:22:29;;;;;;;3.50;2.27;;;;;;;27.85;54.66;100412.55;1605811;87;21134;-70
2022/06/30 05:27:46;;;;;;;2.67;2.47;;;;;;;27.92;54.13;100407.52;1586650;89;21028;-76
2022/06/30 05:30:14;;;;;;;2.12;2.00;;;;;;;28.03;53.78;100414.42;1609550;87;21063;-72
2022/06/30 05:32:40;;;;;;;2.52;2.42;;;;;;;28.13;53.15;100410.09;1612981;87;21119;-74
2022/06/30 05:35:08;;;;;;;4.05;2.40;;;;;;;28.17;52.95;100410.30;1638338;85;21582;-75
2022/06/30 05:37:34;;;;;;;2.62;2.50;;;;;;;28.03;53.59;100415.80;1605844;87;21109;-71
2022/06/30 05:40:00;;;;;;;2.45;2.25;;;;;;;27.95;53.77;100409.09;1604661;87;21562;-73
2022/06/30 05:42:27;;;;;;;3.12;2.27;;;;;;;28.03;53.17;100409.48;1644850;86;21533;-75
2022/06/30 05:44:53;;;;;;;5.12;3.30;;;;;;;28.15;53.06;100411.97;1657288;85;21083;-74
2022/06/30 05:47:19;;;;;;;3.72;2.72;;;;;;;28.22;52.61;100410.20;1661016;84;21125;-72
2022/06/30 05:49:45;;;;;;;2.65;2.45;;;;;;;28.29;52.74;100408.41;1666935;85;21064;-73
2022/06/30 05:52:11;;;;;;;3.30;2.80;;;;;;;28.33;51.91;100401.20;1667179;85;21505;-72
2022/06/30 05:54:37;;;;;;;2.22;2.12;;;;;;;28.28;52.61;100396.64;1648633;85;21035;-71
2022/06/30 05:57:05;;;;;;;2.60;2.40;;;;;;;28.32;50.92;100396.28;1645963;85;21582;-71
2022/06/30 05:59:33;;;;;;;3.67;2.47;;;;;;;28.40;50.74;100396.11;1663468;85;21064;-71
2022/06/30 06:02:01;;;;;;;1.65;1.55;;;;;;;28.38;51.59;100409.31;1653654;85;21043;-73
2022/06/30 06:04:27;;;;;;;2.95;2.85;;;;;;;28.39;50.75;100408.75;1668345;85;21056;-74
2022/06/30 06:06:53;;;;;;;3.17;2.87;;;;;;;28.41;50.98;100412.83;1670795;85;21075;-75
2022/06/30 06:09:20;;;;;;;4.22;1.98;;;;;;;28.44;51.47;100413.56;1654338;85;21154;-74
2022/06/30 06:11:47;;;;;;;2.80;2.27;;;;;;;28.39;51.06;100406.84;1667698;85;21563;-75
2022/06/30 06:14:13;;;;;;;1.65;1.60;;;;;;;28.40;50.51;100400.23;1647900;85;21097;-74
2022/06/30 06:16:39;;;;;;;2.20;2.10;;;;;;;28.50;50.20;100398.66;1661980;85;21058;-74
2022/06/30 06:19:05;;;;;;;2.15;1.98;;;;;;;28.57;49.29;100395.52;1653528;84;21107;-75
2022/06/30 06:21:34;;;;;;;1.02;1.02;;;;;;;28.53;49.73;100398.62;1664526;85;21031;-73
2022/06/30 06:23:59;;;;;;;3.47;2.40;;;;;;;28.63;48.04;100390.72;1661268;85;21097;-74
2022/06/30 06:26:26;;;;;;;1.67;1.60;;;;;;;28.77;49.03;100390.70;1661198;84;22212;-76
2022/06/30 06:29:07;;;;;;;1.95;1.65;;;;;;;28.84;49.05;100401.50;1670242;85;21122;-75
2022/06/30 06:31:37;;;;;;;2.40;1.95;;;;;;;28.77;48.72;100392.08;1654699;85;21106;-73
2022/06/30 06:34:05;;;;;;;1.50;1.45;;;;;;;28.72;48.42;100395.16;1650416;85;21075;-73
2022/06/30 06:36:32;;;;;;;2.67;1.90;;;;;;;28.75;48.91;100391.58;1657442;85;21071;-75
2022/06/30 06:39:00;;;;;;;3.08;2.60;;;;;;;28.79;49.01;100389.83;1669173;84;21551;-74
2022/06/30 06:41:26;;;;;;;2.37;2.17;;;;;;;28.50;49.97;100397.28;1664182;85;21150;-73
2022/06/30 06:43:53;;;;;;;2.22;2.05;;;;;;;28.26;51.00;100398.88;1647750;85;21049;-73
2022/06/30 06:46:26;;;;;;;2.00;1.90;;;;;;;28.25;52.32;100396.44;1616293;86;21560;-75
2022/06/30 06:48:47;;;;;;;2.62;2.42;;;;;;;28.39;51.32;100391.77;1624045;87;21534;-73
2022/06/30 06:51:13;;;;;;;2.40;2.30;;;;;;;28.43;51.18;100392.77;1625866;87;21558;-75
2022/06/30 06:53:40;;;;;;;4.25;2.00;;;;;;;28.35;50.69;100385.28;1623553;87;21070;-74
2022/06/30 06:56:06;;;;;;;1.85;1.77;;;;;;;28.31;50.38;100386.98;1619228;87;21068;-74
2022/06/30 06:58:33;;;;;;;1.82;1.80;;;;;;;28.27;50.95;100385.98;1617681;87;21106;-74
2022/06/30 07:01:00;;;;;;;2.15;2.10;;;;;;;28.28;50.68;100391.73;1611219;87;21599;-75
2022/06/30 07:03:26;;;;;;;1.60;1.50;;;;;;;28.32;50.09;100391.37;1603371;87;21212;-76
2022/06/30 07:05:53;;;;;;;1.75;1.60;;;;;;;28.32;49.40;100391.37;1669744;84;21102;-75
2022/06/30 07:08:19;;;;;;;1.20;1.20;;;;;;;28.40;48.84;100389.27;1671519;85;21267;-76
2022/06/30 07:10:45;;;;;;;1.80;1.70;;;;;;;28.40;48.30;100387.89;1652517;85;21055;-76
2022/06/30 07:13:10;;;;;;;1.92;1.72;;;;;;;28.36;49.74;100386.89;1615754;86;21117;-73
2022/06/30 07:15:38;;;;;;;3.10;2.20;;;;;;;28.36;49.74;100386.89;1619341;87;21048;-75
2022/06/30 07:18:05;;;;;;;1.87;1.52;;;;;;;28.35;48.84;100396.25;1617602;87;21364;-76
2022/06/30 07:20:31;;;;;;;1.22;1.20;;;;;;;28.33;49.32;100391.60;1628826;86;21042;-73
2022/06/30 07:22:57;;;;;;;1.65;1.57;;;;;;;28.51;48.56;100390.66;1628337;86;21092;-77
2022/06/30 07:25:23;;;;;;;1.92;1.70;;;;;;;28.76;47.71;100398.10;1614251;87;21090;-78
2022/06/30 07:27:51;;;;;;;1.22;1.22;;;;;;;28.62;47.06;100352.09;1601096;87;21101;-77
2022/06/30 07:30:17;;;;;;;1.45;1.35;;;;;;;28.98;47.13;100394.58;1605195;87;21069;-72
2022/06/30 07:32:43;;;;;;;1.30;1.30;;;;;;;28.98;46.38;100399.27;1608871;87;20987;-70
2022/06/30 07:35:10;;;;;;;4.62;1.45;;;;;;;28.87;45.95;100397.31;1625517;87;21086;-71
2022/06/30 07:37:39;;;;;;;1.20;1.10;;;;;;;28.62;46.45;100400.09;1573611;89;21053;-72
2022/06/30 07:40:08;;;;;;;1.65;1.55;;;;;;;28.43;47.68;100405.11;1595809;87;21606;-71
2022/06/30 07:42:35;;;;;;;2.40;1.52;;;;;;;28.32;48.05;100392.73;1640088;86;21027;-70
2022/06/30 07:45:04;;;;;;;1.57;1.52;;;;;;;28.29;48.32;100404.30;1640257;86;21089;-70
2022/06/30 07:47:32;;;;;;;1.65;1.65;;;;;;;28.25;49.40;100399.98;1602453;88;21077;-69
2022/06/30 07:50:00;;;;;;;2.55;2.22;;;;;;;28.13;50.29;100398.33;1637919;86;21576;-71
2022/06/30 07:52:26;;;;;;;1.82;1.72;;;;;;;28.09;49.81;100393.22;1604019;88;21015;-69
2022/06/30 07:54:53;;;;;;;1.75;1.62;;;;;;;28.07;50.28;100391.34;1630272;85;21105;-70
2022/06/30 07:57:20;;;;;;;2.10;2.00;;;;;;;28.04;50.01;100396.05;1638429;85;21254;-70
2022/06/30 07:59:47;;;;;;;1.75;1.75;;;;;;;27.93;49.95;100389.41;1641122;85;21139;-71
2022/06/30 08:02:13;;;;;;;2.62;2.52;;;;;;;27.76;50.31;100380.39;1634020;85;21044;-71
2022/06/30 08:04:40;;;;;;;2.47;2.42;;;;;;;27.80;50.21;100391.52;1603975;87;22425;-71
2022/06/30 08:07:06;;;;;;;1.82;1.77;;;;;;;27.77;50.61;100392.15;1623797;86;21150;-70
2022/06/30 08:09:33;;;;;;;1.85;1.75;;;;;;;27.74;50.54;100390.00;1657263;85;22245;-70
2022/06/30 08:12:00;;;;;;;1.80;1.80;;;;;;;27.77;51.06;100391.58;1610046;86;21113;-70
2022/06/30 08:14:26;;;;;;;1.17;1.17;;;;;;;27.85;50.04;100394.73;1622729;87;21023;-70
2022/06/30 08:16:52;;;;;;;1.70;1.60;;;;;;;27.92;50.15;100388.34;1610776;87;21010;-69
2022/06/30 08:19:19;;;;;;;2.15;1.10;;;;;;;27.95;47.69;100387.72;1615937;87;21008;-71
2022/06/30 08:21:47;;;;;;;1.92;1.82;;;;;;;27.92;48.21;100378.75;1619243;87;21667;-71
2022/06/30 08:24:14;;;;;;;1.65;1.55;;;;;;;27.89;49.63;100384.83;1628695;87;21093;-73
2022/06/30 08:26:41;;;;;;;2.80;1.85;;;;;;;27.79;49.41;100388.55;1615918;86;21561;-70
2022/06/30 08:29:08;;;;;;;3.25;1.70;;;;;;;27.62;49.81;100388.33;1628321;86;21116;-70
2022/06/30 08:31:35;;;;;;;1.77;1.67;;;;;;;27.45;50.76;100384.80;1631763;87;21619;-73
2022/06/30 08:34:03;;;;;;;1.35;1.35;;;;;;;27.32;51.27;100389.11;1640282;86;21153;-71
2022/06/30 08:36:29;;;;;;;2.00;1.90;;;;;;;27.32;51.12;100394.02;1625109;86;21093;-71
2022/06/30 08:38:56;;;;;;;1.50;1.40;;;;;;;27.35;50.56;100393.97;1629087;86;21061;-71
2022/06/30 08:44:09;;;;;;;2.08;1.27;;;;;;;27.34;48.51;100396.46;1641423;85;21623;-72
2022/06/30 08:46:40;;;;;;;1.20;1.20;;;;;;;27.22;49.31;100398.28;1628088;86;21069;-70
2022/06/30 08:49:06;;;;;;;1.75;1.75;;;;;;;27.16;50.01;100391.23;1625437;86;21127;-71
2022/06/30 08:51:36;;;;;;;2.42;2.22;;;;;;;27.10;51.20;100384.23;1597730;89;21088;-71
2022/06/30 08:54:03;;;;;;;2.47;2.27;;;;;;;27.09;52.47;100392.20;1618481;86;21073;-70
2022/06/30 08:56:34;;;;;;;2.52;2.37;;;;;;;27.09;52.22;100393.56;1619950;87;21031;-71
2022/06/30 08:59:03;;;;;;;2.40;2.00;;;;;;;26.98;52.59;100385.50;1637153;86;21203;-72
2022/06/30 09:01:29;;;;;;;2.08;1.98;;;;;;;26.85;53.89;100390.36;1603643;87;21609;-72
2022/06/30 09:03:56;;;;;;;2.00;1.80;;;;;;;26.82;54.38;100385.47;1631756;86;21035;-72
2022/06/30 09:06:23;;;;;;;1.25;1.25;;;;;;;26.89;53.21;100384.55;1621719;87;21105;-72
2022/06/30 09:08:50;;;;;;;2.25;2.15;;;;;;;27.00;51.59;100386.58;1612023;87;21076;-72
2022/06/30 09:11:17;;;;;;;1.60;1.57;;;;;;;27.13;51.03;100396.77;1627506;86;21101;-72
2022/06/30 09:13:48;;;;;;;1.57;1.47;;;;;;;27.25;50.50;100390.84;1627223;86;21087;-71
2022/06/30 09:16:17;;;;;;;2.37;2.17;;;;;;;27.32;51.52;100383.08;1615558;86;21069;-71
2022/06/30 09:18:44;;;;;;;4.15;1.70;;;;;;;27.37;50.47;100391.20;1604594;87;21045;-72
2022/06/30 09:21:19;;;;;;;1.80;1.80;;;;;;;27.42;49.61;100387.55;1609688;87;21651;-72
2022/06/30 09:23:48;;;;;;;1.67;1.52;;;;;;;27.48;49.12;100391.02;1635509;86;21612;-70
2022/06/30 09:26:21;;;;;;;2.00;1.90;;;;;;;27.52;48.35;100394.23;1625903;86;21548;-71
2022/06/30 09:28:54;;;;;;;1.52;1.42;;;;;;;27.58;48.58;100388.12;1662526;86;21511;-71
2022/06/30 09:31:38;;;;;;;1.77;1.50;;;;;;;27.61;48.36;100382.58;1621977;86;21350;-72
2022/06/30 09:34:21;;;;;;;1.80;1.70;;;;;;;27.56;48.39;100380.77;1617521;87;21100;-73
2022/06/30 09:36:52;;;;;;;2.15;2.05;;;;;;;27.55;48.40;100382.66;1640325;86;21063;-72
2022/06/30 09:39:21;;;;;;;1.40;1.35;;;;;;;27.58;48.57;100368.39;1644999;86;21071;-71
2022/06/30 09:41:50;;;;;;;1.95;1.72;;;;;;;27.62;48.51;100373.27;1635623;86;21129;-71
2022/06/30 09:44:21;;;;;;;2.02;1.92;;;;;;;27.58;48.82;100371.12;1637927;86;21602;-72
2022/06/30 09:47:04;;;;;;;2.62;1.67;;;;;;;27.55;49.28;100373.08;1640695;86;21099;-71
2022/06/30 09:49:44;;;;;;;2.37;1.57;;;;;;;27.60;48.55;100368.09;1621598;86;21080;-76
2022/06/30 09:52:23;;;;;;;2.22;1.92;;;;;;;27.70;48.54;100370.62;1609411;87;21171;-71
2022/06/30 09:55:01;;;;;;;2.00;1.90;;;;;;;27.81;49.50;100369.08;1617440;87;21061;-72
2022/06/30 09:57:31;;;;;;;2.33;2.22;;;;;;;27.91;48.91;100370.27;1629787;86;21164;-73
2022/06/30 10:00:07;;;;;;;2.30;2.30;;;;;;;27.88;49.20;100370.86;1649235;86;21127;-71
2022/06/30 10:02:41;;;;;;;2.58;2.47;;;;;;;27.84;49.33;100380.78;1629948;86;21057;-72
2022/06/30 10:05:09;;;;;;;2.67;2.47;;;;;;;27.85;49.10;100379.11;1617639;86;21576;-70
2022/06/30 10:07:38;;;;;;;2.75;2.65;;;;;;;27.82;49.05;100381.64;1629005;86;21093;-71
2022/06/30 10:10:09;;;;;;;2.72;2.52;;;;;;;27.73;49.76;100384.28;1632404;86;21069;-71
2022/06/30 10:12:40;;;;;;;2.25;2.15;;;;;;;27.56;50.42;100383.50;1638915;85;21579;-71
2022/06/30 10:15:08;;;;;;;2.80;2.35;;;;;;;27.46;51.04;100369.98;1653278;85;21037;-71
2022/06/30 10:17:45;;;;;;;2.40;2.30;;;;;;;27.43;51.50;100384.28;1637373;85;21029;-72
2022/06/30 10:20:12;;;;;;;4.53;2.90;;;;;;;27.36;51.69;100378.62;1642198;85;21219;-73
2022/06/30 10:22:40;;;;;;;2.25;2.22;;;;;;;27.33;51.78;100372.93;1634349;85;21156;-71
2022/06/30 10:25:09;;;;;;;2.72;2.42;;;;;;;27.32;51.52;100377.59;1636933;85;21041;-72
2022/06/30 10:27:35;;;;;;;2.40;2.20;;;;;;;27.33;51.12;100387.98;1638719;86;21631;-71
2022/06/30 10:30:09;;;;;;;2.72;2.62;;;;;;;27.40;50.66;100384.30;1653060;86;21434;-70
2022/06/30 10:33:09;;;;;;;2.55;2.45;;;;;;;27.50;50.56;100369.63;1637149;85;21088;-72
2022/06/30 10:36:05;;;;;;;3.55;2.70;;;;;;;27.57;50.36;100366.75;1604106;87;21131;-75
2022/06/30 10:39:12;;;;;;;2.42;2.33;;;;;;;27.63;50.59;100377.61;1639709;85;21053;-71
2022/06/30 10:41:47;;;;;;;2.25;2.15;;;;;;;27.63;50.51;100375.68;1638984;85;21085;-73
2022/06/30 10:44:25;;;;;;;2.92;2.65;;;;;;;27.55;50.65;100369.55;1639612;86;21080;-71
2022/06/30 10:46:56;;;;;;;2.62;2.52;;;;;;;27.54;50.73;100358.36;1634571;85;21056;-72
2022/06/30 10:49:26;;;;;;;2.08;1.98;;;;;;;27.57;50.75;100354.99;1641660;85;21068;-71
2022/06/30 10:51:56;;;;;;;2.47;2.37;;;;;;;27.58;50.21;100349.22;1634616;85;21600;-72
2022/06/30 10:54:34;;;;;;;2.27;2.17;;;;;;;27.64;50.51;100361.45;1647664;86;21493;-71
2022/06/30 10:57:02;;;;;;;2.40;2.27;;;;;;;27.68;50.21;100353.69;1645081;85;21077;-73
2022/06/30 10:59:32;;;;;;;2.10;2.10;;;;;;;27.65;50.48;100351.58;1645374;85;21077;-72
2022/06/30 11:02:17;;;;;;;2.25;2.15;;;;;;;27.67;50.37;100356.19;1648510;86;21057;-73
2022/06/30 11:04:44;;;;;;;3.87;2.50;;;;;;;27.70;50.69;100354.20;1652026;85;21108;-73
2022/06/30 11:07:24;;;;;;;3.17;3.02;;;;;;;27.75;50.35;100343.16;1644022;85;21005;-72
2022/06/30 11:09:57;;;;;;;2.75;2.67;;;;;;;27.76;50.06;100345.33;1630950;85;21068;-72
2022/06/30 11:12:37;;;;;;;2.05;1.98;;;;;;;27.77;49.65;100355.98;1644369;85;21533;-71
2022/06/30 11:15:05;;;;;;;2.10;2.10;;;;;;;27.81;48.54;100349.91;1645763;86;21115;-71
2022/06/30 11:20:19;;;;;;;;;;;;;;;27.89;47.98;100350.59;1801107;78;22962;-72
2022/06/30 11:22:47;;;;;;;;;;;;;;;27.82;47.66;100348.23;1740953;81;20129;-73
2022/06/30 11:28:05;;;;;;;2.12;2.02;;;;;;;27.77;48.50;100345.03;1642937;85;21104;-71
2022/06/30 11:30:35;;;;;;;1.95;1.77;;;;;;;27.82;48.82;100340.56;1666354;84;21002;-73
2022/06/30 11:33:03;;;;;;;2.90;2.08;;;;;;;27.86;49.11;100351.16;1651507;85;21052;-72
2022/06/30 11:35:31;;;;;;;1.82;1.72;;;;;;;27.86;48.84;100345.68;1649188;85;21085;-71
2022/06/30 11:37:57;;;;;;;1.72;1.72;;;;;;;27.85;48.85;100364.61;1647191;85;21098;-70
2022/06/30 11:40:24;;;;;;;2.80;2.60;;;;;;;27.76;49.17;100353.00;1648382;86;21082;-72
2022/06/30 11:42:53;;;;;;;2.65;1.92;;;;;;;27.66;49.36;100350.45;1669526;84;21140;-72
2022/06/30 11:45:25;;;;;;;2.12;2.02;;;;;;;27.57;49.38;100353.62;1645027;85;21045;-72
2022/06/30 11:47:57;;;;;;;2.25;2.05;;;;;;;27.48;49.37;100348.59;1652057;85;21598;-71
2022/06/30 11:50:26;;;;;;;2.00;1.90;;;;;;;27.45;49.53;100338.27;1662187;85;21794;-71